Time;durP1;ratioP1;P1;durP2;ratioP2;P2;SDS_P1;SDS_P2;PMS_P1;PMS_P2;Temp;Humidity;BMP_temperature;BMP_pressure;BME280_temperature;BME280_humidity;BME280_pressure;Samples;Min_cycle;Max_cycle;Signal;HPM_P1;HPM_P2
2023/09/11 00:00:56;;;;;;;16.05;13.90;;;14.80;99.90;;;;;;5125115;27;20053;-66
2023/09/11 00:03:22;;;;;;;17.40;13.88;;;14.90;99.90;;;;;;5123400;27;20400;-66
2023/09/11 00:05:49;;;;;;;18.90;14.43;;;14.80;99.90;;;;;;5125459;27;20035;-66
2023/09/11 00:08:15;;;;;;;20.98;14.73;;;14.90;99.90;;;;;;5105512;28;20401;-66
2023/09/11 00:10:41;;;;;;;17.70;13.57;;;14.90;99.90;;;;;;5104075;28;20051;-66
2023/09/11 00:13:07;;;;;;;19.08;14.45;;;14.80;99.90;;;;;;5084533;28;20055;-66
2023/09/11 00:15:34;;;;;;;16.35;13.25;;;14.80;99.90;;;;;;5089489;28;20047;-66
2023/09/11 00:18:00;;;;;;;17.98;13.15;;;14.70;99.90;;;;;;5039885;28;20033;-66
2023/09/11 00:20:26;;;;;;;17.20;13.68;;;14.70;99.90;;;;;;5067500;28;20186;-66
2023/09/11 00:22:52;;;;;;;17.40;13.25;;;14.70;99.90;;;;;;5092143;28;20048;-65
2023/09/11 00:25:18;;;;;;;15.82;13.15;;;14.60;99.90;;;;;;5089098;28;20445;-66
2023/09/11 00:27:44;;;;;;;19.65;13.77;;;14.60;99.90;;;;;;5112607;27;20118;-66
2023/09/11 00:30:11;;;;;;;21.08;12.82;;;14.70;99.90;;;;;;5121210;27;20175;-66
2023/09/11 00:32:37;;;;;;;17.23;13.25;;;14.70;99.90;;;;;;5096998;27;20040;-61
2023/09/11 00:35:03;;;;;;;20.15;13.65;;;14.60;99.90;;;;;;5121777;27;20040;-66
2023/09/11 00:37:29;;;;;;;21.83;13.43;;;14.50;99.90;;;;;;5073192;27;20383;-65
2023/09/11 00:39:55;;;;;;;17.40;13.23;;;14.50;99.90;;;;;;5094782;27;20055;-66
2023/09/11 00:42:21;;;;;;;16.92;13.43;;;14.50;99.90;;;;;;5087345;27;20040;-66
2023/09/11 00:44:47;;;;;;;15.48;13.65;;;14.50;99.90;;;;;;5129705;27;20110;-66
2023/09/11 00:47:13;;;;;;;20.70;13.40;;;14.50;99.90;;;;;;5137636;27;21866;-65
2023/09/11 00:49:40;;;;;;;19.13;12.05;;;14.40;99.90;;;;;;5138692;27;20051;-66
2023/09/11 00:52:06;;;;;;;15.68;12.60;;;14.40;99.90;;;;;;5139427;27;20051;-66
2023/09/11 00:54:32;;;;;;;16.15;12.73;;;14.40;99.90;;;;;;5132127;27;20096;-65
2023/09/11 00:56:59;;;;;;;17.60;13.88;;;14.30;99.90;;;;;;5080049;28;21550;-66
2023/09/11 00:59:25;;;;;;;18.95;13.30;;;14.30;99.90;;;;;;5040689;28;20132;-66
2023/09/11 01:01:52;;;;;;;18.27;12.35;;;14.30;99.90;;;;;;5077131;28;20044;-66
2023/09/11 01:04:18;;;;;;;16.20;12.55;;;14.30;99.90;;;;;;5095320;28;20053;-66
2023/09/11 01:06:46;;;;;;;17.48;13.85;;;14.20;99.90;;;;;;5070145;28;20513;-65
2023/09/11 01:09:12;;;;;;;17.75;12.98;;;14.20;99.90;;;;;;5085841;28;20110;-66
2023/09/11 01:11:38;;;;;;;16.92;12.48;;;14.20;99.90;;;;;;5097774;28;20069;-66
2023/09/11 01:14:04;;;;;;;16.48;12.60;;;14.20;99.90;;;;;;5075916;28;20378;-66
2023/09/11 01:16:40;;;;;;;18.13;12.68;;;14.20;99.90;;;;;;5057339;28;20165;-66
2023/09/11 01:19:36;;;;;;;18.17;13.35;;;14.10;99.90;;;;;;5060914;28;20686;-66
2023/09/11 01:22:17;;;;;;;15.43;12.07;;;14.10;99.90;;;;;;5058765;28;21758;-65
2023/09/11 01:25:12;;;;;;;16.10;12.52;;;14.10;99.90;;;;;;5054846;28;22194;-65
2023/09/11 01:28:06;;;;;;;16.30;12.00;;;14.00;99.90;;;;;;5059770;28;23271;-66
2023/09/11 01:30:33;;;;;;;16.38;12.82;;;14.00;99.90;;;;;;5096259;28;23529;-65
2023/09/11 01:33:00;;;;;;;17.17;12.13;;;14.10;99.90;;;;;;5078113;28;24848;-66
2023/09/11 01:35:26;;;;;;;15.18;13.13;;;14.10;99.90;;;;;;5080394;28;27086;-65
2023/09/11 01:37:55;;;;;;;16.27;12.40;;;14.10;99.90;;;;;;5054764;28;26622;-66
2023/09/11 01:40:24;;;;;;;16.40;11.73;;;14.10;99.90;;;;;;5042589;28;27808;-66
2023/09/11 01:42:55;;;;;;;22.02;13.10;;;14.10;99.90;;;;;;5028239;28;24839;-65
2023/09/11 01:45:22;;;;;;;16.23;12.40;;;14.00;99.90;;;;;;5008195;28;29941;-66
2023/09/11 01:47:51;;;;;;;16.60;13.20;;;13.90;99.90;;;;;;5028812;28;31108;-66
2023/09/11 01:50:20;;;;;;;16.42;12.30;;;13.90;99.90;;;;;;4963865;28;31825;-65
2023/09/11 01:52:49;;;;;;;17.23;12.38;;;14.00;99.90;;;;;;4993049;28;32878;-65
2023/09/11 01:55:16;;;;;;;20.88;12.27;;;14.00;99.90;;;;;;5043521;28;33525;-65
2023/09/11 01:57:42;;;;;;;22.55;13.60;;;14.00;99.90;;;;;;5028625;28;34501;-65
2023/09/11 02:00:11;;;;;;;18.98;13.43;;;13.90;99.90;;;;;;5005587;28;35496;-65
2023/09/11 02:02:42;;;;;;;15.45;12.05;;;13.90;99.90;;;;;;4975785;28;36157;-65
2023/09/11 02:05:09;;;;;;;15.05;12.55;;;13.90;99.90;;;;;;5037905;28;36827;-66
2023/09/11 02:07:35;;;;;;;19.25;12.20;;;13.80;99.90;;;;;;5040015;28;37553;-65
2023/09/11 02:10:02;;;;;;;15.75;12.23;;;13.70;99.90;;;;;;5035420;28;38280;-65
2023/09/11 02:12:28;;;;;;;15.98;12.55;;;13.70;99.90;;;;;;5033044;28;39568;-66
2023/09/11 02:14:55;;;;;;;18.33;12.73;;;13.60;99.90;;;;;;5039655;27;39333;-66
2023/09/11 02:17:21;;;;;;;14.52;12.23;;;13.50;99.90;;;;;;5017155;28;40749;-66
2023/09/11 02:19:47;;;;;;;16.92;12.52;;;13.40;99.90;;;;;;5025525;28;42375;-65
2023/09/11 02:22:13;;;;;;;16.73;12.73;;;13.50;99.90;;;;;;5051517;28;42486;-66
2023/09/11 02:24:39;;;;;;;16.02;12.32;;;13.50;99.90;;;;;;4997507;28;44126;-65
2023/09/11 02:27:05;;;;;;;16.90;12.70;;;13.50;99.90;;;;;;4995167;28;45578;-65
2023/09/11 02:29:31;;;;;;;19.58;11.50;;;13.50;99.90;;;;;;4986373;28;46179;-66
2023/09/11 02:31:57;;;;;;;16.58;11.80;;;13.50;99.90;;;;;;5018325;28;45781;-66
2023/09/11 02:34:23;;;;;;;16.50;11.38;;;13.50;99.90;;;;;;5043443;28;48244;-65
2023/09/11 02:36:49;;;;;;;14.15;11.48;;;13.50;99.90;;;;;;5027680;28;49365;-65
2023/09/11 02:39:15;;;;;;;18.33;12.10;;;13.50;99.90;;;;;;4997985;28;49098;-65
2023/09/11 02:41:41;;;;;;;22.95;12.15;;;13.60;99.90;;;;;;5027549;28;49441;-65
2023/09/11 02:44:07;;;;;;;18.10;12.15;;;13.50;99.90;;;;;;5035002;28;49483;-65
2023/09/11 02:46:33;;;;;;;16.90;11.50;;;13.50;99.90;;;;;;5051664;28;49351;-65
2023/09/11 02:48:59;;;;;;;18.88;11.07;;;13.40;99.90;;;;;;5013260;28;59609;-65
2023/09/11 02:51:27;;;;;;;14.77;11.23;;;13.50;99.90;;;;;;5010478;28;49604;-65
2023/09/11 02:53:53;;;;;;;18.38;10.02;;;13.60;99.90;;;;;;5031889;28;48197;-65
2023/09/11 02:56:19;;;;;;;16.17;10.52;;;13.60;99.90;;;;;;4998928;28;49477;-66
2023/09/11 02:58:46;;;;;;;13.02;11.00;;;13.50;99.90;;;;;;4971181;28;38595;-66
2023/09/11 03:01:12;;;;;;;11.93;10.63;;;13.40;99.90;;;;;;4986879;28;49323;-66
2023/09/11 03:03:38;;;;;;;14.55;11.15;;;13.40;99.90;;;;;;5017578;28;50049;-65
2023/09/11 03:06:04;;;;;;;16.88;11.35;;;13.40;99.90;;;;;;5034817;28;49351;-66
2023/09/11 03:08:30;;;;;;;16.80;10.90;;;13.30;99.90;;;;;;5050152;28;67708;-65
2023/09/11 03:11:07;;;;;;;15.75;11.30;;;13.40;99.90;;;;;;5010163;28;50061;-66
2023/09/11 03:13:35;;;;;;;14.35;11.02;;;13.40;99.90;;;;;;5030919;28;48302;-66
2023/09/11 03:16:12;;;;;;;14.93;11.18;;;13.50;99.90;;;;;;5047518;28;72389;-66
2023/09/11 03:18:40;;;;;;;14.90;11.27;;;13.50;99.90;;;;;;5016823;28;48591;-66
2023/09/11 03:21:07;;;;;;;16.63;10.70;;;13.50;99.90;;;;;;5019524;28;49304;-65
2023/09/11 03:23:34;;;;;;;14.38;11.38;;;13.50;99.90;;;;;;5009858;28;49634;-65
2023/09/11 03:26:00;;;;;;;14.90;11.15;;;13.50;99.90;;;;;;4924368;28;50650;-65
2023/09/11 03:28:28;;;;;;;12.95;10.63;;;13.40;99.90;;;;;;4912554;28;48877;-65
2023/09/11 03:30:55;;;;;;;16.02;12.40;;;13.40;99.90;;;;;;4887255;28;50058;-65
2023/09/11 03:33:21;;;;;;;16.98;11.88;;;13.30;99.90;;;;;;4930325;28;48959;-65
2023/09/11 03:35:47;;;;;;;14.13;10.80;;;13.30;99.90;;;;;;4940426;28;49238;-66
2023/09/11 03:38:14;;;;;;;15.35;11.18;;;13.40;99.90;;;;;;4976259;28;49983;-65
2023/09/11 03:40:43;;;;;;;15.75;10.27;;;13.40;99.90;;;;;;4957708;28;38440;-66
2023/09/11 03:43:09;;;;;;;16.85;11.10;;;13.30;99.90;;;;;;4960415;28;49049;-66
2023/09/11 03:45:37;;;;;;;14.55;10.75;;;13.40;99.90;;;;;;4877285;28;50081;-66
2023/09/11 03:48:03;;;;;;;24.88;12.38;;;13.40;99.90;;;;;;4927944;28;48876;-65
2023/09/11 03:50:29;;;;;;;33.05;12.00;;;13.50;99.90;;;;;;4997090;28;49397;-66
2023/09/11 03:52:55;;;;;;;18.73;11.02;;;13.50;99.90;;;;;;4998929;28;49900;-65
2023/09/11 03:55:21;;;;;;;16.20;11.18;;;13.30;99.90;;;;;;4952937;28;48838;-65
2023/09/11 03:57:48;;;;;;;16.80;11.10;;;13.30;99.90;;;;;;4994868;28;24931;-65
2023/09/11 04:00:14;;;;;;;13.57;10.93;;;13.20;99.90;;;;;;5000380;28;44768;-66
2023/09/11 04:02:40;;;;;;;14.23;10.77;;;13.20;99.90;;;;;;4969828;28;24698;-66
2023/09/11 04:05:06;;;;;;;16.83;11.60;;;13.20;99.90;;;;;;4987362;28;24929;-66
2023/09/11 04:07:32;;;;;;;16.13;10.88;;;13.20;99.90;;;;;;5001912;28;45696;-66
2023/09/11 04:09:59;;;;;;;14.43;10.95;;;13.10;99.90;;;;;;4962020;28;24888;-65
2023/09/11 04:12:25;;;;;;;17.33;11.05;;;13.10;99.90;;;;;;4940638;28;25033;-65
2023/09/11 04:14:51;;;;;;;23.27;11.90;;;13.10;99.90;;;;;;4982385;28;25257;-65
2023/09/11 04:17:17;;;;;;;17.08;11.98;;;13.10;99.90;;;;;;4930461;28;25016;-66
2023/09/11 04:19:44;;;;;;;19.35;11.88;;;13.00;99.90;;;;;;4935652;28;49279;-66
2023/09/11 04:22:11;;;;;;;15.52;10.25;;;13.00;99.90;;;;;;4951790;28;48640;-65
2023/09/11 04:24:39;;;;;;;28.70;12.45;;;13.00;99.90;;;;;;4904533;28;49944;-65
2023/09/11 04:27:05;;;;;;;24.20;12.25;;;13.00;99.90;;;;;;4893600;28;48960;-66
2023/09/11 04:29:31;;;;;;;22.77;12.15;;;13.00;99.90;;;;;;4962245;28;49206;-66
2023/09/11 04:31:57;;;;;;;21.88;12.02;;;12.90;99.90;;;;;;4926725;28;49186;-65
2023/09/11 04:34:24;;;;;;;19.23;11.93;;;12.80;99.90;;;;;;4866567;28;50203;-65
2023/09/11 04:36:51;;;;;;;21.58;10.68;;;12.90;99.90;;;;;;4840363;28;49109;-65
2023/09/11 04:39:18;;;;;;;16.65;10.93;;;12.90;99.90;;;;;;4846293;28;49387;-66
2023/09/11 04:41:44;;;;;;;17.27;10.75;;;12.90;99.90;;;;;;4863483;28;48912;-65
2023/09/11 04:44:10;;;;;;;20.13;13.00;;;12.80;99.90;;;;;;4882973;28;49154;-65
2023/09/11 04:46:38;;;;;;;26.08;13.05;;;12.90;99.90;;;;;;4846944;28;24934;-65
2023/09/11 04:49:04;;;;;;;25.70;12.88;;;12.80;99.90;;;;;;4891141;28;48960;-65
2023/09/11 04:51:32;;;;;;;29.35;14.05;;;12.80;99.90;;;;;;4910609;28;48957;-65
2023/09/11 04:53:58;;;;;;;20.75;12.57;;;12.80;99.90;;;;;;4875310;28;36494;-66
2023/09/11 04:56:24;;;;;;;18.80;12.07;;;12.90;99.90;;;;;;4936668;28;24993;-65
2023/09/11 04:58:50;;;;;;;17.75;12.10;;;12.90;99.90;;;;;;4972289;28;48948;-65
2023/09/11 05:01:16;;;;;;;16.25;11.07;;;12.90;99.90;;;;;;4987266;28;24884;-65
2023/09/11 05:03:45;;;;;;;20.05;12.60;;;12.90;99.90;;;;;;4969596;28;49276;-66
2023/09/11 05:06:11;;;;;;;31.98;15.27;;;13.10;99.90;;;;;;4932130;28;49845;-66
2023/09/11 05:08:37;;;;;;;30.55;16.30;;;13.30;99.90;;;;;;4923210;28;49621;-68
2023/09/11 05:11:23;;;;;;;23.95;14.68;;;13.30;99.90;;;;;;4942351;28;46675;-68
2023/09/11 05:13:50;;;;;;;23.65;15.90;;;13.50;99.90;;;;;;4888582;28;49705;-68
2023/09/11 05:16:18;;;;;;;20.80;14.25;;;13.60;99.90;;;;;;4936281;28;77025;-68
2023/09/11 05:21:50;;;;;;;28.95;15.52;;;13.80;99.90;;;;;;5152714;27;20912;-68
2023/09/11 05:24:16;;;;;;;29.17;15.60;;;14.00;99.90;;;;;;5120156;27;20043;-67
2023/09/11 05:26:42;;;;;;;31.95;14.98;;;14.20;99.90;;;;;;5106475;28;20044;-67
2023/09/11 05:29:08;;;;;;;20.98;13.18;;;14.30;99.90;;;;;;5105347;28;20157;-68
2023/09/11 05:31:34;;;;;;;23.70;13.07;;;14.50;99.90;;;;;;4983915;28;2176799;-68
2023/09/11 05:34:00;;;;;;;18.13;12.30;;;14.60;99.90;;;;;;5050457;28;20044;-68
2023/09/11 05:36:26;;;;;;;19.27;12.07;;;14.60;99.90;;;;;;5071872;28;20477;-67
2023/09/11 05:38:52;;;;;;;25.60;13.35;;;14.70;99.90;;;;;;5081815;28;20060;-67
2023/09/11 05:41:20;;;;;;;30.27;14.75;;;14.70;99.90;;;;;;5065553;28;20049;-68
2023/09/11 05:43:46;;;;;;;21.75;13.27;;;14.80;99.90;;;;;;5067069;28;20043;-68
2023/09/11 05:46:22;;;;;;;28.73;13.93;;;14.80;99.90;;;;;;5062822;28;20041;-67
2023/09/11 05:48:48;;;;;;;19.58;12.40;;;14.90;99.90;;;;;;5060989;28;20043;-68
2023/09/11 05:51:17;;;;;;;30.35;14.93;;;15.20;99.90;;;;;;5055274;28;20096;-68
2023/09/11 05:53:44;;;;;;;29.35;12.80;;;15.50;99.90;;;;;;5057393;28;20490;-68
2023/09/11 05:56:10;;;;;;;24.38;13.75;;;15.70;99.90;;;;;;5033162;28;20402;-68
2023/09/11 05:58:37;;;;;;;29.65;14.13;;;15.90;99.90;;;;;;5059992;28;20123;-68
2023/09/11 06:01:03;;;;;;;27.83;14.35;;;16.00;99.90;;;;;;5051219;28;20049;-68
2023/09/11 06:03:31;;;;;;;22.63;13.35;;;16.10;99.90;;;;;;5056302;28;20486;-67
2023/09/11 06:05:58;;;;;;;36.42;15.30;;;16.40;99.90;;;;;;5050610;28;20080;-68
2023/09/11 06:08:27;;;;;;;31.65;12.98;;;16.40;99.90;;;;;;5012007;28;20064;-68
2023/09/11 06:10:53;;;;;;;23.38;13.15;;;16.60;99.90;;;;;;5057667;28;20051;-68
2023/09/11 06:13:19;;;;;;;25.17;12.93;;;16.80;99.90;;;;;;5056926;28;20132;-68
2023/09/11 06:15:45;;;;;;;22.45;12.45;;;16.90;99.90;;;;;;5054942;28;20135;-67
2023/09/11 06:18:12;;;;;;;31.73;13.35;;;17.30;99.90;;;;;;5053388;28;20043;-68
2023/09/11 06:20:38;;;;;;;33.08;14.98;;;17.90;99.90;;;;;;5052458;28;20082;-68
2023/09/11 06:23:04;;;;;;;38.78;14.15;;;18.20;99.90;;;;;;5049959;28;20055;-68
2023/09/11 06:25:31;;;;;;;32.72;14.43;;;18.40;99.90;;;;;;5027492;28;20034;-67
2023/09/11 06:27:57;;;;;;;32.05;14.85;;;18.80;99.30;;;;;;5013173;28;20390;-68
2023/09/11 06:30:25;;;;;;;24.02;12.93;;;19.20;99.40;;;;;;5031559;28;20115;-68
2023/09/11 06:32:51;;;;;;;29.90;13.50;;;19.40;98.00;;;;;;5026300;28;20238;-68
2023/09/11 06:35:17;;;;;;;33.80;13.98;;;20.00;96.40;;;;;;5021142;28;20041;-68
2023/09/11 06:37:43;;;;;;;26.25;13.07;;;20.40;94.90;;;;;;5019918;28;20041;-68
2023/09/11 06:40:11;;;;;;;21.98;11.35;;;20.50;93.70;;;;;;5006898;28;20425;-68
2023/09/11 06:42:37;;;;;;;28.83;11.75;;;20.80;92.90;;;;;;5017623;28;23056;-68
2023/09/11 06:45:04;;;;;;;23.42;12.52;;;21.20;91.50;;;;;;4998841;28;20052;-67
2023/09/11 06:47:30;;;;;;;25.40;12.15;;;21.50;90.30;;;;;;5012483;28;20046;-68
2023/09/11 06:49:57;;;;;;;24.92;12.85;;;21.70;89.00;;;;;;4995689;28;20053;-67
2023/09/11 06:52:23;;;;;;;24.77;11.30;;;22.10;86.00;;;;;;4962128;28;20043;-67
2023/09/11 06:54:49;;;;;;;24.05;11.80;;;22.30;85.30;;;;;;5028579;28;20084;-67
2023/09/11 06:57:15;;;;;;;59.72;29.15;;;22.80;82.40;;;;;;5020846;28;20395;-67
2023/09/11 06:59:41;;;;;;;75.97;28.65;;;23.00;80.60;;;;;;5014931;28;20120;-67
2023/09/11 07:02:08;;;;;;;47.58;23.80;;;23.40;77.80;;;;;;4977144;28;20582;-67
2023/09/11 07:04:34;;;;;;;39.55;19.75;;;23.50;76.30;;;;;;5009038;28;20057;-63
2023/09/11 07:07:00;;;;;;;31.05;14.95;;;23.60;76.70;;;;;;5015639;28;20045;-67
2023/09/11 07:09:26;;;;;;;40.05;13.63;;;23.50;75.00;;;;;;5030357;28;20059;-66
2023/09/11 07:11:53;;;;;;;25.55;11.75;;;23.70;74.80;;;;;;5026236;28;20095;-66
2023/09/11 07:14:22;;;;;;;20.67;10.40;;;24.00;72.90;;;;;;5029478;28;20049;-66
2023/09/11 07:17:03;;;;;;;17.23;10.25;;;24.30;71.70;;;;;;5025537;28;20949;-66
2023/09/11 07:19:29;;;;;;;23.65;10.18;;;24.50;70.30;;;;;;5012027;28;21252;-65
2023/09/11 07:21:58;;;;;;;24.55;9.02;;;24.70;69.60;;;;;;5027488;28;22006;-66
2023/09/11 07:24:24;;;;;;;19.95;10.77;;;25.10;67.60;;;;;;5025264;28;22852;-66
2023/09/11 07:26:50;;;;;;;20.13;10.93;;;25.30;68.80;;;;;;5043900;28;23296;-66
2023/09/11 07:29:16;;;;;;;22.30;10.48;;;25.90;67.20;;;;;;5030726;28;24134;-66
2023/09/11 07:31:43;;;;;;;25.02;10.63;;;26.10;65.70;;;;;;5036168;28;24974;-66
2023/09/11 07:34:09;;;;;;;17.10;9.68;;;26.20;63.50;;;;;;4991613;28;26297;-66
2023/09/11 07:36:35;;;;;;;22.73;9.25;;;26.50;62.80;;;;;;5006331;28;27313;-66
2023/09/11 07:39:01;;;;;;;18.38;8.48;;;26.70;59.40;;;;;;5004456;28;28080;-66
2023/09/11 07:41:29;;;;;;;13.85;7.25;;;26.70;58.20;;;;;;5016272;28;28781;-66
2023/09/11 07:43:55;;;;;;;15.20;7.80;;;27.00;57.60;;;;;;5002545;28;29682;-67
2023/09/11 07:46:22;;;;;;;21.38;8.45;;;27.00;54.80;;;;;;5004341;28;30317;-67
2023/09/11 07:48:51;;;;;;;19.10;8.05;;;26.80;54.90;;;;;;4947337;28;30862;-67
2023/09/11 07:51:17;;;;;;;15.45;8.18;;;27.30;53.60;;;;;;5000455;28;31849;-67
2023/09/11 07:53:44;;;;;;;38.10;12.00;;;27.10;53.40;;;;;;5027041;28;32328;-67
2023/09/11 07:56:10;;;;;;;21.63;8.55;;;26.70;55.20;;;;;;5013641;28;32934;-67
2023/09/11 07:58:37;;;;;;;19.17;8.52;;;27.30;54.50;;;;;;5003947;28;32730;-67
2023/09/11 08:01:04;;;;;;;27.38;8.25;;;27.50;52.60;;;;;;5011424;28;24818;-67
2023/09/11 08:03:32;;;;;;;23.23;8.57;;;28.20;52.00;;;;;;4990476;28;35121;-67
2023/09/11 08:06:03;;;;;;;27.15;8.90;;;28.40;50.00;;;;;;4993367;28;35747;-67
2023/09/11 08:08:29;;;;;;;;;;;28.60;49.40;;;;;;4997482;28;36195;-67
2023/09/11 08:10:55;;;;;;;13.27;7.40;;;28.60;50.10;;;;;;5005649;28;36302;-68
2023/09/11 08:13:21;;;;;;;17.45;7.10;;;28.30;50.40;;;;;;5007077;28;25480;-67
2023/09/11 08:15:48;;;;;;;16.52;7.60;;;28.50;50.10;;;;;;5003012;28;39420;-68
2023/09/11 08:18:14;;;;;;;18.75;7.15;;;28.70;48.40;;;;;;5017117;28;41135;-68
2023/09/11 08:20:47;;;;;;;18.65;7.63;;;29.00;48.30;;;;;;5013161;28;41450;-68
2023/09/11 08:23:13;;;;;;;19.35;7.30;;;29.70;48.80;;;;;;5002140;28;42721;-68
2023/09/11 08:25:39;;;;;;;17.95;7.55;;;30.00;46.30;;;;;;4984481;28;43786;-68
2023/09/11 08:28:05;;;;;;;18.15;7.53;;;30.10;47.40;;;;;;4975226;28;44153;-68
2023/09/11 08:30:31;;;;;;;20.42;7.70;;;30.10;45.00;;;;;;5005703;28;45020;-68
2023/09/11 08:32:58;;;;;;;14.02;7.38;;;29.90;44.30;;;;;;5001823;28;46259;-61
2023/09/11 08:35:24;;;;;;;17.00;6.65;;;30.30;44.60;;;;;;4953992;28;46488;-68
2023/09/11 08:37:50;;;;;;;15.40;7.03;;;30.60;45.00;;;;;;4917457;28;47873;-68
2023/09/11 08:40:16;;;;;;;13.63;7.30;;;30.80;42.90;;;;;;4969594;28;48233;-68
2023/09/11 08:42:42;;;;;;;15.45;6.93;;;30.80;42.60;;;;;;4993863;28;33409;-68
2023/09/11 08:45:08;;;;;;;21.67;7.70;;;30.70;42.70;;;;;;4981871;28;48783;-68
2023/09/11 08:47:37;;;;;;;16.73;8.02;;;31.40;41.20;;;;;;4979629;28;49628;-68
2023/09/11 08:50:05;;;;;;;11.00;5.75;;;31.30;39.80;;;;;;4991194;28;60128;-68
2023/09/11 08:52:34;;;;;;;21.45;6.63;;;31.20;40.90;;;;;;4981477;28;61677;-68
2023/09/11 08:55:08;;;;;;;22.17;7.25;;;31.20;39.30;;;;;;4982787;28;49094;-67
2023/09/11 08:57:35;;;;;;;19.33;6.82;;;31.70;40.70;;;;;;4972896;28;49883;-68
2023/09/11 09:00:11;;;;;;;22.15;6.40;;;32.10;38.20;;;;;;4963118;28;49342;-67
2023/09/11 09:02:39;;;;;;;31.20;7.75;;;32.10;36.00;;;;;;4963321;28;49883;-68
2023/09/11 09:05:06;;;;;;;15.23;6.15;;;32.40;37.70;;;;;;4929634;28;50129;-68
2023/09/11 09:07:32;;;;;;;16.85;6.55;;;32.30;35.80;;;;;;4953301;28;49506;-68
2023/09/11 09:09:59;;;;;;;26.23;7.35;;;32.00;36.00;;;;;;4990713;28;49446;-68
2023/09/11 09:12:27;;;;;;;9.23;5.80;;;32.50;35.80;;;;;;4994895;28;45829;-68
2023/09/11 09:14:53;;;;;;;14.52;6.40;;;32.80;34.30;;;;;;4981848;28;49657;-68
2023/09/11 09:17:19;;;;;;;14.73;6.47;;;33.50;34.70;;;;;;4964425;28;49508;-68
2023/09/11 09:19:45;;;;;;;16.20;6.30;;;33.50;32.80;;;;;;4952093;28;73180;-68
2023/09/11 09:22:15;;;;;;;16.63;6.88;;;34.00;33.30;;;;;;4933064;28;49852;-68
2023/09/11 09:24:59;;;;;;;18.27;6.27;;;34.20;31.90;;;;;;4940805;28;53614;-68
2023/09/11 09:27:28;;;;;;;17.52;6.93;;;34.20;33.40;;;;;;4980694;28;49970;-69
2023/09/11 09:29:54;;;;;;;22.90;7.25;;;34.40;31.10;;;;;;4972141;28;57038;-68
2023/09/11 09:32:21;;;;;;;12.65;6.68;;;34.10;30.50;;;;;;4946266;28;57287;-68
2023/09/11 09:34:54;;;;;;;17.05;6.88;;;34.00;30.40;;;;;;4960780;28;49121;-68
2023/09/11 09:37:21;;;;;;;13.80;5.50;;;34.00;30.30;;;;;;4969055;28;34660;-68
2023/09/11 09:39:48;;;;;;;12.48;5.88;;;34.40;29.40;;;;;;4978562;28;49212;-69
2023/09/11 09:42:16;;;;;;;16.58;6.82;;;34.50;28.40;;;;;;4948503;28;49047;-69
2023/09/11 09:44:52;;;;;;;22.83;7.20;;;34.60;28.20;;;;;;4926756;28;24968;-69
2023/09/11 09:47:19;;;;;;;20.27;5.38;;;34.50;28.50;;;;;;4926821;28;49349;-69
2023/09/11 09:49:47;;;;;;;14.13;5.88;;;34.80;28.40;;;;;;4938579;28;24897;-69
2023/09/11 09:52:18;;;;;;;20.48;6.30;;;35.30;28.20;;;;;;4964897;28;38614;-69
2023/09/11 09:54:55;;;;;;;14.23;6.80;;;35.70;28.20;;;;;;4994773;28;24951;-69
2023/09/11 09:57:23;;;;;;;46.42;8.55;;;35.60;27.10;;;;;;4984258;28;25035;-68
2023/09/11 09:59:52;;;;;;;15.40;6.03;;;35.70;26.70;;;;;;4995036;28;49572;-70
2023/09/11 10:02:37;;;;;;;11.73;5.60;;;35.90;26.10;;;;;;4981926;28;39977;-70
2023/09/11 10:05:05;;;;;;;8.48;4.80;;;36.40;24.60;;;;;;4985167;28;41079;-70
2023/09/11 10:07:38;;;;;;;9.30;5.82;;;36.50;24.80;;;;;;4971367;28;24998;-70
2023/09/11 10:10:22;;;;;;;13.85;5.47;;;35.50;23.70;;;;;;4996093;28;24928;-70
2023/09/11 10:12:53;;;;;;;9.07;5.22;;;35.40;24.20;;;;;;4977316;28;42623;-70
2023/09/11 10:15:21;;;;;;;9.75;5.05;;;34.70;24.40;;;;;;4945164;28;49871;-70
2023/09/11 10:17:50;;;;;;;9.93;4.60;;;35.40;25.80;;;;;;4933282;28;44534;-70
2023/09/11 10:20:16;;;;;;;7.80;4.68;;;35.40;22.70;;;;;;4959402;28;24913;-70
2023/09/11 10:22:42;;;;;;;9.73;4.78;;;35.60;24.10;;;;;;4999255;28;24571;-69
2023/09/11 10:25:08;;;;;;;7.97;4.22;;;36.40;24.50;;;;;;4927940;28;45736;-70
2023/09/11 10:27:34;;;;;;;6.70;3.67;;;36.70;21.40;;;;;;4886718;28;46234;-70
2023/09/11 10:30:04;;;;;;;11.88;4.72;;;36.70;21.50;;;;;;4972929;28;48228;-70
2023/09/11 10:32:43;;;;;;;11.35;5.10;;;37.10;21.40;;;;;;5004234;28;48265;-70
2023/09/11 10:35:09;;;;;;;10.38;4.43;;;36.90;20.30;;;;;;4987706;28;24909;-70
2023/09/11 10:37:39;;;;;;;7.60;4.57;;;36.80;19.70;;;;;;4972601;28;46790;-70
2023/09/11 10:40:06;;;;;;;11.32;4.97;;;37.10;19.40;;;;;;4987858;28;24923;-70
2023/09/11 10:42:33;;;;;;;6.50;4.13;;;36.90;19.50;;;;;;4971201;28;24925;-70
2023/09/11 10:44:59;;;;;;;9.50;4.65;;;37.00;20.70;;;;;;4962144;28;24885;-70
2023/09/11 10:47:27;;;;;;;10.20;5.15;;;37.20;20.00;;;;;;4960178;28;24818;-70
2023/09/11 10:49:57;;;;;;;7.57;4.40;;;36.10;19.60;;;;;;4969044;28;48755;-71
2023/09/11 10:52:24;;;;;;;21.67;5.20;;;36.60;19.50;;;;;;4955015;28;49161;-70
2023/09/11 10:54:51;;;;;;;10.43;4.28;;;37.00;19.10;;;;;;4975681;28;30192;-70
2023/09/11 10:57:17;;;;;;;6.43;3.78;;;35.80;19.20;;;;;;4948626;28;49419;-70
2023/09/11 10:59:45;;;;;;;16.17;5.13;;;35.30;19.50;;;;;;4934596;28;30394;-70
2023/09/11 11:02:14;;;;;;;15.25;4.82;;;34.60;19.70;;;;;;4935803;28;49010;-70
2023/09/11 11:04:40;;;;;;;9.37;4.23;;;35.40;19.90;;;;;;4995869;28;49465;-70
2023/09/11 11:07:08;;;;;;;9.05;3.80;;;34.80;19.40;;;;;;4970374;28;33124;-69
2023/09/11 11:09:36;;;;;;;5.03;3.42;;;35.30;19.50;;;;;;4917078;28;49305;-69
2023/09/11 11:12:06;;;;;;;4.90;3.50;;;36.10;18.90;;;;;;4941868;28;49288;-69
2023/09/11 11:14:32;;;;;;;12.68;4.90;;;36.70;17.90;;;;;;4950162;28;49130;-69
2023/09/11 11:17:03;;;;;;;11.93;4.45;;;37.20;17.30;;;;;;4913215;28;49272;-69
2023/09/11 11:19:31;;;;;;;6.97;4.07;;;36.90;17.50;;;;;;4876272;28;49768;-69
2023/09/11 11:22:00;;;;;;;13.98;3.72;;;37.30;17.20;;;;;;4858847;28;49873;-70
2023/09/11 11:24:29;;;;;;;8.57;3.45;;;37.70;16.50;;;;;;4874796;28;37080;-69
2023/09/11 11:26:56;;;;;;;19.15;5.85;;;36.60;17.00;;;;;;4861496;28;33722;-70
2023/09/11 11:29:26;;;;;;;12.50;3.75;;;37.50;16.70;;;;;;4892596;28;48346;-70
2023/09/11 11:34:39;;;;;;;7.43;3.45;;;37.40;16.00;;;;;;5154588;27;20134;-70
2023/09/11 11:37:05;;;;;;;6.90;3.63;;;37.80;15.70;;;;;;5137668;27;20052;-69
2023/09/11 11:39:36;;;;;;;5.43;3.30;;;37.60;16.20;;;;;;5058914;27;1459627;-69
2023/09/11 11:42:03;;;;;;;10.82;3.80;;;37.90;16.40;;;;;;5089544;28;20123;-69
2023/09/11 11:44:34;;;;;;;19.45;5.22;;;37.20;16.20;;;;;;5082733;28;20058;-70
2023/09/11 11:47:01;;;;;;;7.40;3.28;;;36.30;16.90;;;;;;5058257;28;20064;-70
2023/09/11 11:49:28;;;;;;;3.95;3.10;;;35.40;16.80;;;;;;5072680;28;20525;-69
2023/09/11 11:51:54;;;;;;;8.10;3.85;;;35.20;17.60;;;;;;5102004;28;20048;-69
2023/09/11 11:54:21;;;;;;;10.68;3.58;;;35.80;17.60;;;;;;5100559;28;20459;-69
2023/09/11 11:56:52;;;;;;;11.73;4.30;;;36.20;16.60;;;;;;5072272;28;20041;-69
2023/09/11 11:59:18;;;;;;;5.60;3.00;;;36.10;16.30;;;;;;5063033;28;20053;-69
2023/09/11 12:01:44;;;;;;;7.47;3.75;;;36.90;16.60;;;;;;5062902;28;20040;-69
2023/09/11 12:04:10;;;;;;;9.55;3.40;;;37.00;15.10;;;;;;5058212;28;20048;-69
2023/09/11 12:06:36;;;;;;;5.38;2.85;;;35.70;15.70;;;;;;5059293;28;20075;-70
2023/09/11 12:09:03;;;;;;;6.25;3.00;;;36.50;16.20;;;;;;5066072;28;20044;-69
2023/09/11 12:11:30;;;;;;;7.22;3.05;;;36.10;14.60;;;;;;5085101;28;20438;-69
2023/09/11 12:13:57;;;;;;;3.80;2.53;;;36.30;15.20;;;;;;5075732;28;20150;-69
2023/09/11 12:16:23;;;;;;;6.85;3.67;;;36.70;14.40;;;;;;5064047;28;20037;-70
2023/09/11 12:18:49;;;;;;;4.72;3.47;;;36.80;14.50;;;;;;5082123;28;20424;-70
2023/09/11 12:21:15;;;;;;;7.47;3.42;;;36.90;13.50;;;;;;5071383;28;20082;-70
2023/09/11 12:23:41;;;;;;;8.75;3.70;;;36.00;13.90;;;;;;5078631;28;20048;-70
2023/09/11 12:26:08;;;;;;;8.60;3.60;;;36.30;14.10;;;;;;5043724;28;20061;-70
2023/09/11 12:28:34;;;;;;;11.23;4.30;;;36.80;12.90;;;;;;5038088;28;20052;-69
2023/09/11 12:31:00;;;;;;;4.97;2.78;;;37.00;11.70;;;;;;5068001;28;20102;-69
2023/09/11 12:33:28;;;;;;;9.38;3.22;;;35.40;12.70;;;;;;5057026;28;20486;-69
2023/09/11 12:35:55;;;;;;;5.93;2.83;;;35.80;13.60;;;;;;5075415;28;20410;-69
2023/09/11 12:38:24;;;;;;;5.03;2.90;;;36.50;13.50;;;;;;5071462;28;20045;-69
2023/09/11 12:40:51;;;;;;;7.70;3.27;;;36.90;12.60;;;;;;5061849;28;20052;-69